Time;durP1;ratioP1;P1;durP2;ratioP2;P2;SDS_P1;SDS_P2;PMS_P1;PMS_P2;Temp;Humidity;BMP_temperature;BMP_pressure;BME280_temperature;BME280_humidity;BME280_pressure;Samples;Min_cycle;Max_cycle;Signal;HPM_P1;HPM_P2
2024/01/17 00:00:45;;;;;;;35.57;19.93;;;;;;;4.80;62.56;94506.91;5109422;28;20795;-67
2024/01/17 00:03:12;;;;;;;36.93;20.73;;;;;;;4.67;62.71;94492.56;5110451;28;20253;-67
2024/01/17 00:05:39;;;;;;;32.13;19.83;;;;;;;4.79;62.69;94506.06;5110433;28;20240;-67
2024/01/17 00:08:06;;;;;;;34.77;20.87;;;;;;;4.85;62.75;94520.03;5110556;28;20220;-68
2024/01/17 00:10:33;;;;;;;35.20;20.60;;;;;;;4.84;62.84;94539.50;5109886;28;20196;-67
2024/01/17 00:13:00;;;;;;;35.30;20.20;;;;;;;4.68;62.75;94506.81;5109978;28;20231;-67
2024/01/17 00:15:28;;;;;;;34.90;21.23;;;;;;;4.68;62.75;94514.41;5110142;28;20196;-67
2024/01/17 00:17:57;;;;;;;35.53;21.13;;;;;;;4.61;62.97;94494.69;5111280;28;20848;-67
2024/01/17 00:20:24;;;;;;;41.60;22.83;;;;;;;4.81;63.00;94538.91;5110077;28;20193;-68
2024/01/17 00:22:51;;;;;;;36.90;23.00;;;;;;;4.81;62.93;94541.44;5110475;28;20200;-68
2024/01/17 00:25:18;;;;;;;38.10;23.97;;;;;;;4.60;63.04;94510.81;5109736;28;20185;-67
2024/01/17 00:27:49;;;;;;;38.93;23.87;;;;;;;4.81;63.01;94547.31;5110652;28;20181;-66
2024/01/17 00:30:16;;;;;;;38.43;23.33;;;;;;;4.70;62.80;94527.78;5109972;28;20287;-68
2024/01/17 00:32:44;;;;;;;39.37;23.60;;;;;;;4.43;63.18;94482.38;5110372;28;20220;-66
2024/01/17 00:35:11;;;;;;;45.27;25.97;;;;;;;4.81;63.09;94544.78;5110232;28;20204;-66
2024/01/17 00:37:38;;;;;;;39.83;24.37;;;;;;;4.47;63.04;94485.53;5110081;28;20194;-68
2024/01/17 00:40:05;;;;;;;43.50;25.83;;;;;;;4.81;63.11;94543.97;5109956;28;20193;-66
2024/01/17 00:42:35;;;;;;;44.00;25.60;;;;;;;4.66;63.15;94515.44;5109889;28;20181;-68
2024/01/17 00:45:03;;;;;;;41.80;25.60;;;;;;;4.82;63.16;94546.38;5113414;28;20195;-68
2024/01/17 00:47:30;;;;;;;43.30;24.67;;;;;;;4.65;63.08;94509.56;5114286;28;20220;-68
2024/01/17 00:49:59;;;;;;;43.43;26.53;;;;;;;4.45;63.22;94483.09;5113887;28;20624;-68
2024/01/17 00:52:26;;;;;;;46.87;27.40;;;;;;;4.81;63.06;94537.19;5113251;28;20197;-67
2024/01/17 00:54:53;;;;;;;42.70;24.93;;;;;;;4.82;63.20;94531.19;5113859;28;20185;-67
2024/01/17 00:57:20;;;;;;;45.53;25.37;;;;;;;4.46;62.87;94456.06;5113637;28;20667;-68
2024/01/17 00:59:46;;;;;;;45.83;25.67;;;;;;;4.82;63.08;94517.72;5114613;28;20182;-67
2024/01/17 01:02:13;;;;;;;45.30;26.63;;;;;;;4.82;63.16;94507.59;5115330;28;20189;-66
2024/01/17 01:04:40;;;;;;;43.87;25.93;;;;;;;4.82;63.10;94523.59;5122350;28;20196;-67
2024/01/17 01:07:07;;;;;;;45.00;26.33;;;;;;;4.80;63.23;94512.78;5114817;28;20282;-66
2024/01/17 01:09:34;;;;;;;42.47;25.20;;;;;;;4.80;63.28;94520.38;5113429;28;20611;-67
2024/01/17 01:12:00;;;;;;;44.27;26.13;;;;;;;4.78;63.33;94517.91;5113137;28;20217;-67
2024/01/17 01:14:27;;;;;;;47.57;26.60;;;;;;;4.77;63.16;94507.91;5113282;28;20569;-66
2024/01/17 01:16:54;;;;;;;38.07;24.17;;;;;;;4.77;63.20;94511.25;5113182;28;20253;-68
2024/01/17 01:19:21;;;;;;;44.67;26.33;;;;;;;4.73;63.23;94498.91;5113579;28;20195;-68
2024/01/17 01:21:48;;;;;;;44.57;24.40;;;;;;;4.59;63.43;94473.75;5113756;28;20641;-70
2024/01/17 01:24:16;;;;;;;40.03;24.93;;;;;;;4.78;62.98;94496.84;5113368;28;20553;-66
2024/01/17 01:26:42;;;;;;;40.90;25.63;;;;;;;4.82;63.32;94505.06;5113270;28;20209;-67
2024/01/17 01:29:10;;;;;;;38.47;24.00;;;;;;;4.82;63.26;94503.31;5113755;28;20572;-67
2024/01/17 01:31:37;;;;;;;44.10;25.37;;;;;;;4.68;63.22;94490.81;5113875;28;20720;-66
2024/01/17 01:34:03;;;;;;;42.57;25.17;;;;;;;4.75;63.30;94502.97;5121495;28;20192;-68
2024/01/17 01:36:30;;;;;;;42.60;24.57;;;;;;;4.84;63.23;94529.38;5117804;28;20185;-66
2024/01/17 01:38:57;;;;;;;39.53;23.97;;;;;;;4.85;63.21;94530.19;5125921;28;20192;-68
2024/01/17 01:41:25;;;;;;;45.83;24.00;;;;;;;4.86;63.29;94534.31;5121284;28;20193;-66
2024/01/17 01:43:52;;;;;;;40.00;22.97;;;;;;;4.66;63.27;94500.22;5115643;28;20188;-67
2024/01/17 01:46:24;;;;;;;37.30;23.70;;;;;;;4.14;63.19;94425.38;5114591;28;20221;-67
2024/01/17 01:48:51;;;;;;;36.10;24.07;;;;;;;4.26;63.19;94443.03;5114010;28;20185;-66
2024/01/17 01:51:23;;;;;;;42.57;24.23;;;;;;;4.87;63.39;94541.81;5113707;28;20277;-70
2024/01/17 01:53:53;;;;;;;38.80;23.43;;;;;;;4.66;63.34;94498.53;5113788;28;20279;-68
2024/01/17 01:56:24;;;;;;;41.20;23.03;;;;;;;4.89;63.32;94529.84;5114457;28;20237;-68
2024/01/17 01:58:55;;;;;;;38.90;23.87;;;;;;;4.64;63.09;94486.88;5122255;28;20192;-67
2024/01/17 02:01:23;;;;;;;37.17;22.23;;;;;;;4.63;63.15;94480.22;5117721;28;20197;-66
2024/01/17 02:03:51;;;;;;;42.33;22.70;;;;;;;4.74;63.22;94491.19;5112460;28;20177;-67
2024/01/17 02:06:20;;;;;;;33.63;21.90;;;;;;;4.92;63.21;94516.16;5112731;28;20247;-67
2024/01/17 02:08:47;;;;;;;36.73;23.07;;;;;;;4.92;63.19;94513.63;5112318;28;20201;-67
2024/01/17 02:11:14;;;;;;;37.40;22.20;;;;;;;4.91;63.38;94507.75;5111659;27;20651;-66
2024/01/17 02:13:41;;;;;;;38.43;22.67;;;;;;;4.64;63.19;94466.63;5112206;28;20242;-67
2024/01/17 02:16:10;;;;;;;37.30;22.27;;;;;;;4.24;63.20;94393.47;5111650;28;20376;-67
2024/01/17 02:18:37;;;;;;;37.33;22.30;;;;;;;4.80;63.29;94487.44;5112019;28;20197;-67
2024/01/17 02:21:05;;;;;;;34.30;21.50;;;;;;;4.68;63.39;94484.03;5111914;28;20231;-68
2024/01/17 02:23:32;;;;;;;36.00;22.10;;;;;;;4.71;63.46;94477.94;5112055;28;20549;-67
2024/01/17 02:26:00;;;;;;;38.47;21.97;;;;;;;4.87;63.29;94503.81;5111604;28;20185;-69
2024/01/17 02:28:29;;;;;;;34.37;22.30;;;;;;;4.38;63.29;94420.34;5112122;28;20639;-67
2024/01/17 02:31:02;;;;;;;37.63;21.33;;;;;;;4.86;63.25;94494.59;5111697;28;20193;-67
2024/01/17 02:33:29;;;;;;;36.53;21.37;;;;;;;4.86;63.34;94488.72;5112178;28;20696;-67
2024/01/17 02:35:56;;;;;;;36.80;22.20;;;;;;;4.86;63.34;94489.53;5112029;28;20189;-67
2024/01/17 02:38:23;;;;;;;31.03;20.60;;;;;;;4.86;63.25;94488.72;5111829;28;20197;-68
2024/01/17 02:40:50;;;;;;;36.33;20.80;;;;;;;4.86;63.44;94481.13;5111871;28;20177;-66
2024/01/17 02:43:18;;;;;;;33.70;20.17;;;;;;;4.89;63.40;94488.50;5111625;28;20189;-67
2024/01/17 02:45:44;;;;;;;31.10;19.97;;;;;;;4.87;63.26;94478.47;5111162;28;20189;-66
2024/01/17 02:48:11;;;;;;;37.87;21.20;;;;;;;4.94;63.35;94483.91;5111373;28;20221;-66
2024/01/17 02:50:39;;;;;;;34.47;19.87;;;;;;;4.90;63.29;94472.38;5111380;28;20192;-68
2024/01/17 02:53:07;;;;;;;36.10;20.27;;;;;;;4.76;63.34;94455.63;5110958;28;20193;-67
2024/01/17 02:55:34;;;;;;;37.30;20.43;;;;;;;4.98;63.31;94485.31;5111237;28;20657;-66
2024/01/17 02:58:01;;;;;;;32.17;20.33;;;;;;;5.07;63.17;94496.53;5110892;28;20280;-68
2024/01/17 03:00:29;;;;;;;35.27;21.63;;;;;;;5.09;63.25;94500.56;5111033;28;20231;-67
2024/01/17 03:02:56;;;;;;;35.47;20.17;;;;;;;5.12;63.26;94502.88;5110930;28;20612;-67
2024/01/17 03:05:23;;;;;;;32.63;19.23;;;;;;;5.15;63.21;94497.59;5111204;28;20551;-68
2024/01/17 03:07:49;;;;;;;32.17;19.13;;;;;;;5.16;63.15;94499.22;5109817;28;20220;-66
2024/01/17 03:10:16;;;;;;;32.10;19.17;;;;;;;5.19;63.25;94495.66;5110939;28;20188;-67
2024/01/17 03:12:43;;;;;;;31.73;19.10;;;;;;;5.19;63.31;94499.00;5110701;28;20225;-67
2024/01/17 03:15:10;;;;;;;39.37;22.13;;;;;;;5.20;63.19;94500.59;5111055;28;20185;-67
2024/01/17 03:17:38;;;;;;;34.57;20.13;;;;;;;5.12;62.99;94481.78;5111055;28;20288;-68
2024/01/17 03:20:10;;;;;;;31.30;20.53;;;;;;;5.14;63.19;94485.00;5113240;28;20266;-67
2024/01/17 03:22:37;;;;;;;31.77;21.63;;;;;;;5.26;63.24;94496.81;5111367;28;20239;-67
2024/01/17 03:25:05;;;;;;;28.83;18.50;;;;;;;5.26;63.25;94489.22;5111714;28;20186;-66
2024/01/17 03:27:32;;;;;;;35.00;19.27;;;;;;;5.28;63.19;94489.94;5110989;28;20212;-68
2024/01/17 03:29:59;;;;;;;31.07;19.87;;;;;;;5.29;63.18;94474.59;5110824;28;20683;-68
2024/01/17 03:32:25;;;;;;;32.40;20.80;;;;;;;5.29;63.07;94483.94;5111121;28;20196;-68
2024/01/17 03:34:55;;;;;;;30.07;18.77;;;;;;;5.29;63.20;94489.00;5110558;28;20192;-68
2024/01/17 03:37:22;;;;;;;34.10;20.23;;;;;;;5.29;63.11;94477.13;5110982;28;20200;-66
2024/01/17 03:39:49;;;;;;;38.43;20.20;;;;;;;5.25;63.10;94469.84;5110534;28;20663;-67
2024/01/17 03:42:16;;;;;;;35.77;18.93;;;;;;;5.31;63.14;94477.03;5110416;28;20227;-66
2024/01/17 03:44:43;;;;;;;31.23;19.50;;;;;;;5.33;62.99;94476.91;5110632;28;20193;-67
2024/01/17 03:47:11;;;;;;;33.77;19.93;;;;;;;5.33;63.11;94481.97;5110211;28;20315;-66
2024/01/17 03:49:37;;;;;;;32.87;19.80;;;;;;;5.33;63.02;94482.78;5110100;28;20189;-66
2024/01/17 03:52:07;;;;;;;32.30;19.23;;;;;;;5.10;63.46;94458.31;5110439;28;20192;-67
2024/01/17 03:54:35;;;;;;;33.23;21.03;;;;;;;5.31;63.27;94506.63;5110246;28;20185;-67
2024/01/17 03:57:02;;;;;;;29.47;18.17;;;;;;;5.28;63.13;94511.00;5110087;28;20224;-65
2024/01/17 03:59:28;;;;;;;37.70;21.10;;;;;;;5.09;62.92;94492.16;5110100;28;20271;-67
2024/01/17 04:01:55;;;;;;;33.97;19.50;;;;;;;5.23;63.57;94520.69;5110545;28;20246;-66
2024/01/17 04:04:22;;;;;;;34.30;21.17;;;;;;;5.22;63.28;94523.31;5109963;28;20188;-67
2024/01/17 04:06:49;;;;;;;33.40;18.53;;;;;;;5.20;63.18;94522.63;5110539;28;20205;-68
2024/01/17 04:09:17;;;;;;;30.50;19.17;;;;;;;5.10;63.23;94509.78;5109652;28;20188;-66
2024/01/17 04:11:45;;;;;;;30.17;19.47;;;;;;;5.10;63.24;94509.78;5110174;28;20247;-67
2024/01/17 04:14:12;;;;;;;30.80;19.70;;;;;;;5.08;63.28;94503.22;5110165;28;20189;-68
2024/01/17 04:16:39;;;;;;;28.67;18.47;;;;;;;4.92;63.30;94478.13;5110189;28;20213;-67
2024/01/17 04:19:06;;;;;;;29.97;18.70;;;;;;;5.09;63.29;94502.28;5113704;28;20272;-65
2024/01/17 04:21:33;;;;;;;30.57;18.43;;;;;;;5.07;63.32;94507.47;5114599;28;20260;-67
2024/01/17 04:24:00;;;;;;;29.60;19.20;;;;;;;5.01;63.26;94501.13;5114427;28;20938;-66
2024/01/17 04:26:30;;;;;;;33.83;19.80;;;;;;;4.70;63.31;94458.59;5114514;28;20553;-67
2024/01/17 04:28:58;;;;;;;29.67;19.57;;;;;;;5.01;63.44;94511.25;5115184;28;20685;-67
2024/01/17 04:31:26;;;;;;;33.53;18.90;;;;;;;4.48;63.31;94419.56;5117538;28;20181;-66
2024/01/17 04:33:54;;;;;;;30.70;19.17;;;;;;;4.82;63.53;94478.00;5118590;28;20219;-67
2024/01/17 04:36:22;;;;;;;33.87;19.80;;;;;;;4.97;63.41;94509.84;5123026;28;20576;-66
2024/01/17 04:38:49;;;;;;;28.17;18.27;;;;;;;4.68;63.46;94473.91;5114908;28;20216;-70
2024/01/17 04:41:16;;;;;;;31.07;18.20;;;;;;;4.94;63.45;94520.19;5113732;28;20197;-67
2024/01/17 04:43:45;;;;;;;33.73;20.13;;;;;;;4.92;63.47;94519.50;5114270;28;20185;-67
2024/01/17 04:46:14;;;;;;;27.30;18.43;;;;;;;4.91;63.59;94517.06;5113894;28;20610;-67
2024/01/17 04:48:41;;;;;;;31.43;18.60;;;;;;;4.82;63.61;94503.31;5113925;28;20211;-65
2024/01/17 04:51:09;;;;;;;28.17;18.77;;;;;;;4.61;63.52;94474.44;5113358;28;20185;-67
2024/01/17 04:53:38;;;;;;;32.90;19.90;;;;;;;4.75;63.30;94497.09;5113596;28;20191;-65
2024/01/17 04:56:06;;;;;;;31.17;19.63;;;;;;;4.87;63.70;94524.06;5113431;28;20268;-67
2024/01/17 04:58:33;;;;;;;27.60;17.83;;;;;;;4.86;63.71;94542.72;5113942;28;20185;-67
2024/01/17 05:01:01;;;;;;;32.83;19.93;;;;;;;4.74;63.71;94538.50;5113478;28;20638;-66
2024/01/17 05:03:28;;;;;;;31.00;18.73;;;;;;;4.85;63.64;94560.56;5114561;28;20189;-66
2024/01/17 05:05:55;;;;;;;31.97;18.97;;;;;;;4.60;63.68;94520.94;5114372;28;20212;-68
2024/01/17 05:08:22;;;;;;;34.27;19.73;;;;;;;4.85;63.75;94568.97;5113316;28;20228;-66
2024/01/17 05:10:49;;;;;;;35.20;20.87;;;;;;;4.86;63.79;94565.53;5113130;28;20185;-66
2024/01/17 05:13:16;;;;;;;34.13;20.50;;;;;;;4.78;63.75;94542.44;5113176;28;20207;-68
2024/01/17 05:15:43;;;;;;;25.57;18.30;;;;;;;4.89;63.69;94542.53;5114744;28;20192;-68
2024/01/17 05:18:11;;;;;;;37.50;20.40;;;;;;;4.92;63.86;94534.72;5113718;28;20199;-66
2024/01/17 05:20:38;;;;;;;33.20;20.10;;;;;;;4.96;63.83;94525.16;5113388;28;20185;-65
2024/01/17 05:23:05;;;;;;;32.23;19.27;;;;;;;4.99;63.68;94527.47;5113089;28;20196;-66
2024/01/17 05:25:33;;;;;;;32.60;19.27;;;;;;;5.01;63.73;94531.53;5113063;28;20195;-65
2024/01/17 05:27:59;;;;;;;33.83;20.17;;;;;;;4.93;63.38;94521.13;5112728;28;20221;-66
2024/01/17 05:30:27;;;;;;;33.53;19.60;;;;;;;4.87;63.67;94505.53;5112280;28;20201;-67
2024/01/17 05:32:55;;;;;;;33.83;20.93;;;;;;;5.08;63.72;94539.50;5112965;28;20185;-68
2024/01/17 05:35:23;;;;;;;35.13;20.77;;;;;;;5.10;63.73;94530.06;5113508;28;20215;-66
2024/01/17 05:37:50;;;;;;;30.10;20.33;;;;;;;5.13;63.59;94541.69;5113424;28;20517;-68
2024/01/17 05:40:18;;;;;;;23.40;14.00;;;;;;;5.73;100.00;94540.75;5112474;28;20642;-69
2024/01/17 05:42:46;;;;;;;22.47;14.83;;;;;;;6.53;100.00;94488.19;5113491;28;20200;-68
2024/01/17 05:45:13;;;;;;;22.33;15.40;;;;;;;7.83;100.00;94529.66;5113075;28;20196;-67
2024/01/17 05:47:40;;;;;;;21.37;14.17;;;;;;;8.80;100.00;94536.78;5116128;28;20209;-69
2024/01/17 05:50:09;;;;;;;22.73;14.47;;;;;;;9.67;96.12;94546.28;5116252;28;20243;-71
2024/01/17 05:52:39;;;;;;;21.97;13.80;;;;;;;10.42;91.11;94542.09;5129714;28;20238;-67
2024/01/17 05:55:07;;;;;;;18.33;13.20;;;;;;;11.15;86.12;94541.31;5131802;28;20193;-68
2024/01/17 05:57:33;;;;;;;24.07;12.80;;;;;;;11.75;82.94;94550.03;5115180;28;20189;-69
2024/01/17 06:00:00;;;;;;;21.07;12.53;;;;;;;12.21;80.68;94550.66;5115103;28;20189;-74
2024/01/17 06:02:27;;;;;;;21.87;15.27;;;;;;;12.44;78.85;94558.69;5111945;28;20184;-68
2024/01/17 06:04:54;;;;;;;22.73;16.03;;;;;;;12.34;76.33;94542.56;5112083;28;20185;-67
2024/01/17 06:07:21;;;;;;;22.13;15.70;;;;;;;12.12;73.17;94527.72;5112422;28;20196;-66
2024/01/17 06:09:49;;;;;;;23.37;15.40;;;;;;;11.54;70.26;94485.50;5112264;28;20200;-68
2024/01/17 06:12:16;;;;;;;24.10;15.63;;;;;;;11.49;68.16;94532.03;5112493;28;20228;-70
2024/01/17 06:14:43;;;;;;;25.30;16.50;;;;;;;11.18;66.88;94541.84;5112650;28;20569;-68
2024/01/17 06:17:09;;;;;;;26.07;17.60;;;;;;;10.79;65.88;94529.28;5112883;28;20194;-69
2024/01/17 06:19:36;;;;;;;27.97;16.77;;;;;;;10.57;65.62;94546.72;5112234;27;20193;-63
2024/01/17 06:22:03;;;;;;;23.67;16.13;;;;;;;10.18;65.46;94526.38;5111973;28;20207;-69
2024/01/17 06:24:30;;;;;;;26.23;17.70;;;;;;;10.12;65.06;94537.19;5111687;28;20783;-68
2024/01/17 06:26:58;;;;;;;24.53;15.67;;;;;;;9.70;64.78;94504.31;5111959;28;20220;-69
2024/01/17 06:29:26;;;;;;;26.83;17.03;;;;;;;9.50;64.98;94522.22;5111822;28;20209;-70
2024/01/17 06:31:53;;;;;;;22.73;16.00;;;;;;;9.53;64.86;94557.66;5111741;28;20249;-68
2024/01/17 06:34:20;;;;;;;30.50;17.80;;;;;;;9.29;64.91;94536.88;5111780;28;20238;-68
2024/01/17 06:36:47;;;;;;;27.53;16.90;;;;;;;9.16;64.83;94541.41;5112150;28;20192;-67
2024/01/17 06:39:16;;;;;;;30.43;16.67;;;;;;;9.03;64.76;94545.03;5111838;28;20259;-67
2024/01/17 06:41:42;;;;;;;23.53;16.53;;;;;;;8.89;64.75;94547.94;5110879;28;20200;-66
2024/01/17 06:44:11;;;;;;;28.03;18.00;;;;;;;8.79;64.73;94558.13;5112268;28;20193;-67
2024/01/17 06:46:38;;;;;;;25.27;17.77;;;;;;;8.93;64.42;94572.25;5111274;28;20193;-67
2024/01/17 06:49:05;;;;;;;29.70;19.07;;;;;;;9.18;64.09;94562.50;5112773;28;20212;-67
2024/01/17 06:51:32;;;;;;;33.07;18.40;;;;;;;9.48;63.78;94564.13;5112295;28;20185;-67
2024/01/17 06:53:59;;;;;;;23.57;17.83;;;;;;;9.77;63.52;94559.03;5112338;28;20554;-66
2024/01/17 06:56:25;;;;;;;30.53;19.60;;;;;;;9.97;63.22;94550.41;5112056;28;20646;-66
2024/01/17 06:58:52;;;;;;;25.27;18.50;;;;;;;10.08;62.85;94546.06;5112258;28;20178;-65
2024/01/17 07:01:20;;;;;;;28.50;19.23;;;;;;;10.16;62.54;94553.84;5112211;28;20204;-70
2024/01/17 07:03:47;;;;;;;28.57;19.27;;;;;;;10.11;62.57;94549.16;5111186;28;20247;-65
2024/01/17 07:06:14;;;;;;;27.07;18.97;;;;;;;10.04;62.46;94542.97;5112550;28;20185;-68
2024/01/17 07:08:42;;;;;;;29.30;18.70;;;;;;;9.95;62.42;94543.81;5112300;28;20251;-67
2024/01/17 07:11:10;;;;;;;32.73;19.33;;;;;;;10.06;62.04;94536.00;5121492;28;20242;-67
2024/01/17 07:13:38;;;;;;;28.53;18.87;;;;;;;10.24;61.63;94523.28;5124321;28;20561;-68
2024/01/17 07:16:05;;;;;;;32.17;20.60;;;;;;;10.74;61.51;94531.44;5121605;28;20181;-69
2024/01/17 07:18:34;;;;;;;28.83;18.67;;;;;;;11.14;61.20;94532.84;5112050;28;20719;-65
2024/01/17 07:21:05;;;;;;;26.63;18.17;;;;;;;11.59;60.91;94549.06;5111286;28;20193;-69
2024/01/17 07:23:32;;;;;;;27.50;17.90;;;;;;;11.85;60.69;94539.72;5110880;28;20213;-68
2024/01/17 07:25:59;;;;;;;30.80;19.33;;;;;;;12.23;60.38;94571.06;5111566;28;20697;-70
2024/01/17 07:28:26;;;;;;;28.00;18.70;;;;;;;12.53;59.81;94572.34;5110923;28;20221;-68
2024/01/17 07:30:52;;;;;;;28.23;19.23;;;;;;;12.75;59.47;94583.84;5111159;28;20240;-69
2024/01/17 07:33:19;;;;;;;28.87;18.87;;;;;;;12.83;58.97;94567.69;5109809;28;20193;-67
2024/01/17 07:35:48;;;;;;;29.57;19.97;;;;;;;12.99;58.59;94567.72;5110560;28;20181;-67
2024/01/17 07:38:15;;;;;;;33.33;21.33;;;;;;;12.96;58.05;94561.16;5110966;28;20258;-65
2024/01/17 07:40:43;;;;;;;34.80;22.23;;;;;;;13.00;57.79;94570.16;5110637;28;20196;-65
2024/01/17 07:43:10;;;;;;;30.83;21.43;;;;;;;13.09;57.43;94583.00;5111030;28;20218;-68
2024/01/17 07:45:37;;;;;;;29.00;20.53;;;;;;;13.06;57.02;94576.41;5110219;28;20193;-71
2024/01/17 07:48:04;;;;;;;30.87;22.13;;;;;;;12.89;56.80;94562.72;5110828;28;20223;-66
2024/01/17 07:50:31;;;;;;;33.50;23.50;;;;;;;12.91;56.76;94570.25;5110521;28;20185;-66
2024/01/17 07:53:01;;;;;;;36.23;24.53;;;;;;;12.82;56.85;94564.28;5110350;28;20200;-67
2024/01/17 07:55:27;;;;;;;38.33;26.43;;;;;;;12.68;56.68;94554.59;5110288;28;20312;-68
2024/01/17 07:57:54;;;;;;;36.37;25.63;;;;;;;12.56;56.77;94546.38;5110916;28;20184;-69
2024/01/17 08:00:22;;;;;;;38.10;26.93;;;;;;;12.34;56.64;94540.00;5110453;28;20189;-66
2024/01/17 08:02:49;;;;;;;36.83;27.10;;;;;;;12.21;56.69;94552.44;5110872;28;20565;-68
2024/01/17 08:05:15;;;;;;;36.30;27.23;;;;;;;11.93;56.41;94529.53;5110431;28;20180;-67
2024/01/17 08:07:42;;;;;;;35.93;27.13;;;;;;;11.93;56.54;94562.84;5113833;28;20195;-68
2024/01/17 08:10:11;;;;;;;43.30;29.17;;;;;;;11.71;56.00;94542.78;5118563;28;20231;-68
2024/01/17 08:12:38;;;;;;;37.57;27.40;;;;;;;11.69;56.14;94553.16;5110507;28;20271;-70
2024/01/17 08:15:08;;;;;;;39.27;28.07;;;;;;;11.65;56.21;94568.97;5110914;28;20191;-69
2024/01/17 08:17:35;;;;;;;43.67;26.43;;;;;;;11.55;56.33;94566.50;5110518;28;20196;-68
2024/01/17 08:20:03;;;;;;;37.90;27.07;;;;;;;11.47;56.39;94568.97;5110914;28;20700;-70
2024/01/17 08:22:30;;;;;;;42.63;28.10;;;;;;;11.40;56.46;94570.50;5110732;28;20181;-66
2024/01/17 08:24:57;;;;;;;36.37;26.60;;;;;;;11.32;56.33;94585.81;5110100;28;20189;-69
2024/01/17 08:27:26;;;;;;;38.47;24.57;;;;;;;11.31;56.34;94582.41;5110060;28;20254;-70
2024/01/17 08:29:53;;;;;;;36.97;26.37;;;;;;;11.25;56.23;94550.53;5110675;28;20697;-70
2024/01/17 08:32:20;;;;;;;36.37;24.80;;;;;;;11.23;56.20;94552.44;5109898;28;20201;-69
2024/01/17 08:34:47;;;;;;;35.23;24.83;;;;;;;11.20;56.36;94557.84;5109877;28;20594;-70
2024/01/17 08:37:14;;;;;;;32.10;23.63;;;;;;;11.16;56.37;94565.97;5110183;28;20323;-69
2024/01/17 08:39:43;;;;;;;36.53;24.13;;;;;;;11.11;56.09;94584.31;5110098;28;20588;-69
2024/01/17 08:42:10;;;;;;;35.80;23.73;;;;;;;11.07;55.95;94600.09;5110120;28;20213;-68
2024/01/17 08:44:38;;;;;;;35.13;23.63;;;;;;;11.02;56.17;94601.31;5110052;28;20558;-68
2024/01/17 08:47:07;;;;;;;31.23;22.93;;;;;;;10.91;55.98;94581.03;5110260;28;20189;-67
2024/01/17 08:49:39;;;;;;;33.93;22.87;;;;;;;10.90;56.16;94570.94;5109885;28;20220;-67
2024/01/17 08:52:07;;;;;;;33.73;23.43;;;;;;;10.85;56.08;94570.56;5110129;28;20291;-67
2024/01/17 08:54:34;;;;;;;32.37;22.17;;;;;;;10.77;55.99;94571.28;5109754;28;20192;-68
2024/01/17 08:57:01;;;;;;;36.87;24.37;;;;;;;10.78;56.25;94603.56;5110204;28;20193;-68
2024/01/17 08:59:30;;;;;;;28.60;21.37;;;;;;;10.75;56.16;94593.63;5109630;28;20193;-69
2024/01/17 09:01:58;;;;;;;32.77;23.33;;;;;;;10.69;56.18;94583.97;5110131;28;20204;-65
2024/01/17 09:04:25;;;;;;;34.03;23.03;;;;;;;10.68;56.21;94580.59;5110205;28;20193;-70
2024/01/17 09:06:52;;;;;;;32.93;22.97;;;;;;;10.61;56.21;94576.19;5114157;28;20181;-69
2024/01/17 09:09:20;;;;;;;31.93;21.30;;;;;;;10.63;56.44;94580.22;5113544;28;20248;-65
2024/01/17 09:11:47;;;;;;;33.27;22.37;;;;;;;10.62;56.06;94565.84;5114766;28;20290;-66
2024/01/17 09:14:14;;;;;;;29.33;19.67;;;;;;;10.61;56.30;94551.41;5114507;28;20199;-65
2024/01/17 09:16:41;;;;;;;27.67;20.53;;;;;;;10.59;56.03;94555.09;5113145;28;20189;-67
2024/01/17 09:19:09;;;;;;;25.93;20.00;;;;;;;10.55;56.45;94537.47;5113554;28;20722;-68
2024/01/17 09:21:36;;;;;;;28.07;20.27;;;;;;;10.53;56.21;94528.31;5113109;28;20189;-65
2024/01/17 09:24:03;;;;;;;28.70;20.97;;;;;;;10.51;56.39;94548.91;5112929;28;20193;-64
2024/01/17 09:26:29;;;;;;;30.27;20.53;;;;;;;10.49;56.27;94545.69;5112910;28;20192;-66
2024/01/17 09:28:56;;;;;;;28.93;18.80;;;;;;;10.46;56.12;94535.75;5112874;28;20216;-65
2024/01/17 09:31:23;;;;;;;30.17;20.70;;;;;;;10.48;56.11;94533.03;5112973;28;20200;-66
2024/01/17 09:33:50;;;;;;;26.93;19.40;;;;;;;10.22;56.27;94481.72;5113256;28;20197;-67
2024/01/17 09:36:18;;;;;;;26.70;20.03;;;;;;;10.47;56.03;94534.00;5113250;28;20185;-68
2024/01/17 09:38:44;;;;;;;28.97;20.20;;;;;;;10.51;56.06;94548.91;5113190;28;20192;-66
2024/01/17 09:41:11;;;;;;;28.87;19.20;;;;;;;10.54;56.09;94540.97;5112779;28;20220;-66
2024/01/17 09:43:38;;;;;;;33.07;20.73;;;;;;;10.49;56.17;94522.69;5112886;28;20206;-66
2024/01/17 09:46:11;;;;;;;32.93;19.93;;;;;;;10.52;56.21;94513.91;5112781;28;20181;-66
2024/01/17 09:48:39;;;;;;;27.30;20.13;;;;;;;10.59;56.13;94512.41;5119874;28;20220;-69
2024/01/17 09:51:06;;;;;;;29.77;19.80;;;;;;;10.47;55.97;94477.75;5116674;28;20270;-67
2024/01/17 09:53:35;;;;;;;31.03;20.23;;;;;;;10.68;56.06;94513.31;5112708;28;20181;-68
2024/01/17 09:56:03;;;;;;;26.50;19.80;;;;;;;10.72;55.95;94520.56;5113186;28;20193;-68
2024/01/17 09:58:33;;;;;;;28.77;19.60;;;;;;;10.75;55.95;94494.69;5113543;28;20185;-66
2024/01/17 10:01:02;;;;;;;30.73;20.87;;;;;;;10.78;55.92;94479.03;5113196;28;20324;-67
2024/01/17 10:03:31;;;;;;;26.83;19.70;;;;;;;10.82;55.83;94486.44;5113359;28;20215;-66
2024/01/17 10:06:00;;;;;;;26.37;20.10;;;;;;;10.86;55.75;94491.13;5116559;28;20177;-64
2024/01/17 10:08:28;;;;;;;29.87;19.93;;;;;;;10.83;55.68;94480.38;5133382;28;20185;-64
2024/01/17 10:10:57;;;;;;;30.50;21.27;;;;;;;10.89;55.64;94490.03;5132949;28;20199;-63
2024/01/17 10:13:24;;;;;;;30.97;20.50;;;;;;;10.90;55.57;94494.19;5124768;28;20697;-65
2024/01/17 10:15:50;;;;;;;30.57;19.63;;;;;;;10.88;55.53;94490.97;5111942;28;20196;-63
2024/01/17 10:18:17;;;;;;;30.27;20.47;;;;;;;10.95;55.77;94490.25;5112722;28;20193;-69
2024/01/17 10:20:44;;;;;;;30.33;19.60;;;;;;;10.88;55.49;94463.66;5111904;28;20181;-65
2024/01/17 10:23:12;;;;;;;34.03;22.00;;;;;;;11.04;55.27;94476.59;5112125;28;20573;-63
2024/01/17 10:25:40;;;;;;;29.10;20.10;;;;;;;11.05;55.36;94470.53;5111956;27;20692;-64
2024/01/17 10:28:09;;;;;;;33.80;21.57;;;;;;;11.25;54.77;94478.06;5112266;28;20193;-66
2024/01/17 10:30:37;;;;;;;29.23;20.53;;;;;;;11.44;54.83;94477.91;5112015;28;20696;-67
2024/01/17 10:33:05;;;;;;;30.33;21.30;;;;;;;11.65;54.48;94459.63;5111571;28;20201;-64
2024/01/17 10:35:32;;;;;;;29.97;20.27;;;;;;;11.59;54.17;94421.81;5112065;28;20193;-67
2024/01/17 10:37:58;;;;;;;35.07;21.07;;;;;;;12.04;54.09;94456.69;5111761;28;20197;-67
2024/01/17 10:40:25;;;;;;;26.80;21.43;;;;;;;12.09;53.56;94425.47;5112719;28;20189;-67
2024/01/17 10:43:16;;;;;;;32.20;23.53;;;;;;;12.50;53.39;94447.75;5112181;28;20249;-66
2024/01/17 10:45:44;;;;;;;33.67;23.50;;;;;;;12.73;53.09;94436.91;5050657;28;20281;-68
2024/01/17 10:48:11;;;;;;;34.50;24.13;;;;;;;12.82;52.96;94412.88;5050501;28;20684;-67
2024/01/17 10:50:38;;;;;;;32.57;23.60;;;;;;;12.98;52.61;94422.38;5050136;28;20231;-67
2024/01/17 10:53:08;;;;;;;34.83;24.90;;;;;;;13.09;52.33;94419.50;5049788;28;20198;-64
2024/01/17 10:55:36;;;;;;;34.67;24.50;;;;;;;13.23;52.22;94416.31;5049664;28;20278;-69
2024/01/17 10:58:09;;;;;;;33.23;24.83;;;;;;;13.21;52.00;94384.03;5050460;28;20202;-69
2024/01/17 11:00:39;;;;;;;39.07;25.50;;;;;;;13.28;51.81;94372.19;5050194;28;20191;-70
2024/01/17 11:03:09;;;;;;;42.03;24.70;;;;;;;13.50;51.62;94380.97;5049820;28;20202;-67
2024/01/17 11:05:45;;;;;;;32.60;24.80;;;;;;;13.78;51.34;94384.78;5048316;28;20222;-67
2024/01/17 11:08:13;;;;;;;32.37;23.97;;;;;;;13.93;51.05;94373.81;5049135;28;20186;-67
2024/01/17 11:10:43;;;;;;;31.57;23.73;;;;;;;14.01;51.20;94369.44;5048753;28;20707;-67
2024/01/17 11:13:11;;;;;;;31.47;23.00;;;;;;;14.10;50.97;94370.22;5048405;28;20245;-68
2024/01/17 11:15:40;;;;;;;36.37;23.47;;;;;;;14.24;50.71;94364.34;5048339;28;20187;-67
2024/01/17 11:18:09;;;;;;;34.67;22.03;;;;;;;14.28;50.61;94368.19;5047985;28;20225;-70
2024/01/17 11:20:37;;;;;;;30.40;22.00;;;;;;;14.36;50.41;94372.50;5047966;28;20274;-67
2024/01/17 11:23:05;;;;;;;30.83;20.70;;;;;;;14.34;50.28;94371.09;5090091;28;20185;-70